createdAt,value
2023-03-04T00:01:06.744Z,39.65
2023-03-04T00:03:10.895Z,40.20
2023-03-04T00:05:13.365Z,40.07
2023-03-04T00:07:17.025Z,40.29
2023-03-04T00:09:18.967Z,40.16
2023-03-04T00:11:20.662Z,40.61
2023-03-04T00:13:22.343Z,40.14
2023-03-04T00:15:23.872Z,39.89
2023-03-04T00:17:25.608Z,39.76
2023-03-04T00:19:27.326Z,40.09
2023-03-04T00:21:29.362Z,39.94
2023-03-04T00:23:31.636Z,40.30
2023-03-04T00:25:33.628Z,40.05
2023-03-04T00:27:35.276Z,40.25
2023-03-04T00:29:37.638Z,40.23
2023-03-04T00:31:39.390Z,40.09
2023-03-04T00:33:43.401Z,40.45
2023-03-04T00:35:45.139Z,40.29
2023-03-04T00:37:46.785Z,40.05
2023-03-04T00:39:48.372Z,40.58
2023-03-04T00:41:50.078Z,40.65
2023-03-04T00:43:51.941Z,40.62
2023-03-04T00:45:53.625Z,40.53
2023-03-04T00:47:55.369Z,40.15
2023-03-04T00:49:56.889Z,40.10
2023-03-04T00:51:58.492Z,40.60
2023-03-04T00:54:01.019Z,40.68
2023-03-04T00:56:02.705Z,40.32
2023-03-04T00:58:06.058Z,40.76
2023-03-04T01:00:08.630Z,40.17
2023-03-04T01:02:11.334Z,40.45
2023-03-04T01:04:13.023Z,40.82
2023-03-04T01:06:14.749Z,40.80
2023-03-04T01:08:16.289Z,40.30
2023-03-04T01:10:17.930Z,40.25
2023-03-04T01:12:19.527Z,40.60
2023-03-04T01:14:21.054Z,40.40
2023-03-04T01:16:22.628Z,40.80
2023-03-04T01:18:24.845Z,40.63
2023-03-04T01:20:26.380Z,40.88
2023-03-04T01:22:28.059Z,41.03
2023-03-04T01:24:30.435Z,40.67
2023-03-04T01:26:31.996Z,40.88
2023-03-04T01:28:35.921Z,41.11
2023-03-04T01:30:37.655Z,41.15
2023-03-04T01:32:39.303Z,40.93
2023-03-04T01:34:40.952Z,41.25
2023-03-04T01:36:42.423Z,41.36
2023-03-04T01:38:44.053Z,40.83
2023-03-04T01:40:45.656Z,40.87
2023-03-04T01:42:47.347Z,41.32
2023-03-04T01:44:51.128Z,40.86
2023-03-04T01:46:55.641Z,41.13
2023-03-04T01:49:00.083Z,40.85
2023-03-04T01:51:03.155Z,41.19
2023-03-04T01:53:06.320Z,41.08
2023-03-04T01:55:26.671Z,41.19
2023-03-04T01:57:35.196Z,41.07
2023-03-04T01:59:36.798Z,41.15
2023-03-04T02:01:39.890Z,40.90
2023-03-04T02:03:41.682Z,41.27
2023-03-04T02:05:48.302Z,41.18
2023-03-04T02:07:52.553Z,41.06
2023-03-04T02:09:54.062Z,41.12
2023-03-04T02:11:55.836Z,41.27
2023-03-04T02:13:58.333Z,41.12
2023-03-04T02:16:00.142Z,41.17
2023-03-04T02:18:02.655Z,41.66
2023-03-04T02:20:22.397Z,41.57
2023-03-04T02:22:24.013Z,41.71
2023-03-04T02:24:28.566Z,41.37
2023-03-04T02:26:32.176Z,41.41
2023-03-04T02:28:34.837Z,41.39
2023-03-04T02:30:36.764Z,41.62
2023-03-04T02:32:38.418Z,41.48
2023-03-04T02:34:47.353Z,41.58
2023-03-04T02:36:51.402Z,41.76
2023-03-04T02:38:54.421Z,42.48
2023-03-04T02:40:58.339Z,42.19
2023-03-04T02:43:01.173Z,42.24
2023-03-04T02:45:02.907Z,42.24
2023-03-04T02:47:07.464Z,42.00
2023-03-04T02:49:09.076Z,42.06
2023-03-04T02:51:10.912Z,42.15
2023-03-04T02:53:12.778Z,41.81
2023-03-04T02:55:15.182Z,42.37
2023-03-04T02:57:16.830Z,42.78
2023-03-04T02:59:23.199Z,42.68
2023-03-04T03:01:28.777Z,41.83
2023-03-04T03:03:30.599Z,42.15
2023-03-04T03:05:34.568Z,42.63
2023-03-04T03:07:38.143Z,42.30
2023-03-04T03:09:39.838Z,41.92
2023-03-04T03:11:41.611Z,42.65
2023-03-04T03:13:43.970Z,42.19
2023-03-04T03:15:45.666Z,42.84
2023-03-04T03:17:47.272Z,42.58
2023-03-04T03:19:49.748Z,42.68
2023-03-04T03:21:52.205Z,41.87
2023-03-04T03:23:53.765Z,42.89
2023-03-04T03:25:55.384Z,42.93
2023-03-04T03:27:56.967Z,42.55
2023-03-04T03:29:59.076Z,43.15
2023-03-04T03:32:03.112Z,42.89
2023-03-04T03:34:04.783Z,42.86
2023-03-04T03:36:07.664Z,43.12
2023-03-04T03:38:09.268Z,42.69
2023-03-04T03:40:11.778Z,42.47
2023-03-04T03:42:13.300Z,42.67
2023-03-04T03:44:14.877Z,42.97
2023-03-04T03:46:16.476Z,42.97
2023-03-04T03:48:18.349Z,42.93
2023-03-04T03:50:20.008Z,42.50
2023-03-04T03:52:21.529Z,43.05
2023-03-04T03:54:23.120Z,42.98
2023-03-04T03:56:24.661Z,43.40
2023-03-04T03:58:26.945Z,42.91
2023-03-04T04:00:28.756Z,43.19
2023-03-04T04:02:30.409Z,43.48
2023-03-04T04:04:32.467Z,43.38
2023-03-04T04:06:34.071Z,43.42
2023-03-04T04:08:35.623Z,43.73
2023-03-04T04:10:37.344Z,42.59
2023-03-04T04:12:38.973Z,43.13
2023-03-04T04:14:41.162Z,42.98
2023-03-04T04:16:42.873Z,43.49
2023-03-04T04:18:44.459Z,42.91
2023-03-04T04:20:46.801Z,43.91
2023-03-04T04:22:48.270Z,43.59
2023-03-04T04:24:49.852Z,43.28
2023-03-04T04:26:51.526Z,43.34
2023-03-04T04:28:53.162Z,43.86
2023-03-04T04:30:54.761Z,43.21
2023-03-04T04:32:56.267Z,43.06
2023-03-04T04:34:57.852Z,43.18
2023-03-04T04:36:59.485Z,42.92
2023-03-04T04:39:01.040Z,42.89
2023-03-04T04:41:03.161Z,43.04
2023-03-04T04:43:04.696Z,42.60
2023-03-04T04:45:07.066Z,42.92
2023-03-04T04:47:09.905Z,43.14
2023-03-04T04:49:11.352Z,43.28
2023-03-04T04:51:13.259Z,42.51
2023-03-04T04:53:14.883Z,42.79
2023-03-04T04:55:17.065Z,42.94
2023-03-04T04:57:18.619Z,43.41
2023-03-04T04:59:20.378Z,43.72
2023-03-04T05:01:22.306Z,43.14
2023-03-04T05:03:23.877Z,43.16
2023-03-04T05:05:25.520Z,42.84
2023-03-04T05:07:27.027Z,43.40
2023-03-04T05:09:28.518Z,42.95
2023-03-04T05:11:30.141Z,43.45
2023-03-04T05:13:32.146Z,43.50
2023-03-04T05:15:33.826Z,42.89
2023-03-04T05:17:35.404Z,42.76
2023-03-04T05:19:36.892Z,43.02
2023-03-04T05:21:38.451Z,42.93
2023-03-04T05:23:41.836Z,43.19
2023-03-04T05:25:43.436Z,43.46
2023-03-04T05:27:45.095Z,43.40
2023-03-04T05:29:46.858Z,43.00
2023-03-04T05:31:48.439Z,43.11
2023-03-04T05:33:49.946Z,43.55
2023-03-04T05:35:51.885Z,43.67
2023-03-04T05:37:53.445Z,43.29
2023-03-04T05:39:55.181Z,43.19
2023-03-04T05:41:56.754Z,43.74
2023-03-04T05:43:58.327Z,43.63
2023-03-04T05:45:59.917Z,43.98
2023-03-04T05:48:03.005Z,43.27
2023-03-04T05:50:04.801Z,43.30
2023-03-04T05:52:06.390Z,43.70
2023-03-04T05:54:07.848Z,43.51
2023-03-04T05:56:11.649Z,43.17
2023-03-04T05:58:13.670Z,43.34
2023-03-04T06:00:17.123Z,43.27
2023-03-04T06:02:18.711Z,43.42
2023-03-04T06:04:20.275Z,44.04
2023-03-04T06:06:21.845Z,43.29
2023-03-04T06:08:23.993Z,43.38
2023-03-04T06:10:25.744Z,43.74
2023-03-04T06:12:29.053Z,43.38
2023-03-04T06:14:30.639Z,43.73
2023-03-04T06:16:32.408Z,43.34
2023-03-04T06:18:33.915Z,43.55
2023-03-04T06:20:35.567Z,43.48
2023-03-04T06:22:37.266Z,43.04
2023-03-04T06:24:39.212Z,43.45
2023-03-04T06:26:40.855Z,43.56
2023-03-04T06:28:43.695Z,43.21
2023-03-04T06:30:45.467Z,43.59
2023-03-04T06:32:47.991Z,43.71
2023-03-04T06:34:49.528Z,43.66
2023-03-04T06:36:51.334Z,43.86
2023-03-04T06:38:52.993Z,44.22
2023-03-04T06:40:57.156Z,43.68
2023-03-04T06:42:59.020Z,43.90
2023-03-04T06:45:00.849Z,43.62
2023-03-04T06:47:02.473Z,43.50
2023-03-04T06:49:04.094Z,44.30
2023-03-04T06:51:10.138Z,43.89
2023-03-04T06:53:11.720Z,44.23
2023-03-04T06:55:14.168Z,43.44
2023-03-04T06:57:15.822Z,43.81
2023-03-04T06:59:17.668Z,44.17
2023-03-04T07:01:27.213Z,43.76
2023-03-04T07:03:28.777Z,43.67
2023-03-04T07:05:30.395Z,44.31
2023-03-04T07:07:32.055Z,43.87
2023-03-04T07:09:33.667Z,43.57
2023-03-04T07:11:35.330Z,44.01
2023-03-04T07:13:38.363Z,44.20
2023-03-04T07:15:39.989Z,44.31
2023-03-04T07:17:41.619Z,43.86
2023-03-04T07:19:43.297Z,44.01
2023-03-04T07:21:45.200Z,44.52
2023-03-04T07:23:47.370Z,44.01
2023-03-04T07:25:50.396Z,44.49
2023-03-04T07:27:51.935Z,44.68
2023-03-04T07:29:53.502Z,44.49
2023-03-04T07:31:55.705Z,43.60
2023-03-04T07:34:10.011Z,44.53
2023-03-04T07:36:11.781Z,44.07
2023-03-04T07:38:13.328Z,44.02
2023-03-04T07:40:15.007Z,43.68
2023-03-04T07:42:16.637Z,44.39
2023-03-04T07:44:26.329Z,44.37
2023-03-04T07:46:28.013Z,44.07
2023-03-04T07:48:29.638Z,44.13
2023-03-04T07:50:31.279Z,44.07
2023-03-04T07:52:32.729Z,44.17
2023-03-04T07:54:34.539Z,44.34
2023-03-04T07:56:36.341Z,44.42
2023-03-04T07:58:38.626Z,44.65
2023-03-04T08:00:41.462Z,44.04
2023-03-04T08:02:43.226Z,44.11
2023-03-04T08:04:44.790Z,43.99
2023-03-04T08:06:46.883Z,44.13
2023-03-04T08:08:49.217Z,44.39
2023-03-04T08:10:50.838Z,43.96
2023-03-04T08:12:52.423Z,44.38
2023-03-04T08:14:54.119Z,43.93
2023-03-04T08:16:55.763Z,44.19
2023-03-04T08:19:00.605Z,44.41
2023-03-04T08:21:02.140Z,44.56
2023-03-04T08:23:03.812Z,44.40
2023-03-04T08:25:05.729Z,43.67
2023-03-04T08:27:07.374Z,43.81
2023-03-04T08:29:12.831Z,43.74
2023-03-04T08:31:15.887Z,43.89
2023-03-04T08:33:17.551Z,44.13
2023-03-04T08:35:19.116Z,43.88
2023-03-04T08:37:20.617Z,43.81
2023-03-04T08:39:22.217Z,44.05
2023-03-04T08:41:25.716Z,43.27
2023-03-04T08:43:27.880Z,43.96
2023-03-04T08:45:29.750Z,44.08
2023-03-04T08:47:31.348Z,44.03
2023-03-04T08:49:32.940Z,43.97
2023-03-04T08:51:35.929Z,44.05
2023-03-04T08:53:38.121Z,44.03
2023-03-04T08:55:40.574Z,44.07
2023-03-04T08:57:42.238Z,43.98
2023-03-04T08:59:43.832Z,43.79
2023-03-04T09:01:46.083Z,44.29
2023-03-04T09:03:47.613Z,44.17
2023-03-04T09:05:49.346Z,43.62
2023-03-04T09:07:51.008Z,44.20
2023-03-04T09:09:52.703Z,44.17
2023-03-04T09:11:54.688Z,44.03
2023-03-04T09:13:56.834Z,44.16
2023-03-04T09:15:59.396Z,44.01
2023-03-04T09:18:03.214Z,44.27
2023-03-04T09:20:05.884Z,43.96
2023-03-04T09:22:07.617Z,44.11
2023-03-04T09:24:09.292Z,44.28
2023-03-04T09:26:22.589Z,44.22
2023-03-04T09:28:24.396Z,44.41
2023-03-04T09:30:28.044Z,44.21
2023-03-04T09:32:30.922Z,44.28
2023-03-04T09:34:32.528Z,44.11
2023-03-04T09:36:34.350Z,44.08
2023-03-04T09:38:36.069Z,43.89
2023-03-04T09:40:48.128Z,44.19
2023-03-04T09:42:55.794Z,44.10
2023-03-04T09:44:58.496Z,44.14
2023-03-04T09:47:07.318Z,43.86
2023-03-04T09:49:13.169Z,43.97
2023-03-04T09:51:39.386Z,43.99
2023-03-04T09:53:46.175Z,43.93
2023-03-04T09:55:51.531Z,43.85
2023-03-04T09:57:55.770Z,44.01
2023-03-04T10:00:13.647Z,44.11
2023-03-04T10:02:29.460Z,43.99
2023-03-04T10:04:50.186Z,43.92
2023-03-04T10:06:54.676Z,43.97
2023-03-04T10:09:01.389Z,44.13
2023-03-04T10:11:10.944Z,44.00
2023-03-04T10:13:22.937Z,44.25
2023-03-04T10:15:36.539Z,43.96
2023-03-04T10:17:43.145Z,43.95
2023-03-04T10:20:06.926Z,43.90
2023-03-04T10:22:23.604Z,43.85
2023-03-04T10:24:29.216Z,43.89
2023-03-04T10:26:33.351Z,43.88
2023-03-04T10:28:35.515Z,43.51
2023-03-04T10:30:48.328Z,43.72
2023-03-04T10:32:50.113Z,43.71
2023-03-04T10:34:52.101Z,43.37
2023-03-04T10:36:55.563Z,43.83
2023-03-04T10:39:00.774Z,43.77
2023-03-04T10:41:13.752Z,43.59
2023-03-04T10:43:20.010Z,43.28
2023-03-04T10:45:28.131Z,43.57
2023-03-04T10:47:32.801Z,43.52
2023-03-04T10:49:34.498Z,43.67
2023-03-04T10:51:44.092Z,43.60
2023-03-04T10:53:48.752Z,43.31
2023-03-04T10:55:50.665Z,43.37
2023-03-04T10:58:06.280Z,43.65
2023-03-04T11:00:17.191Z,43.62
2023-03-04T11:02:28.536Z,43.45
2023-03-04T11:04:34.541Z,43.53
2023-03-04T11:06:41.188Z,43.37
2023-03-04T11:08:43.484Z,43.34
2023-03-04T11:10:46.014Z,43.51
2023-03-04T11:13:27.113Z,43.15
2023-03-04T11:15:31.231Z,43.08
2023-03-04T11:17:47.209Z,43.49
2023-03-04T11:19:54.400Z,43.08
2023-03-04T11:21:57.642Z,43.01
2023-03-04T11:24:18.795Z,43.39
2023-03-04T11:26:51.464Z,43.13
2023-03-04T11:29:00.643Z,43.21
2023-03-04T11:31:14.169Z,43.14
2023-03-04T11:33:41.646Z,43.33
2023-03-04T11:36:03.989Z,43.04
2023-03-04T11:38:29.426Z,42.99
2023-03-04T11:40:43.376Z,43.08
2023-03-04T11:42:53.409Z,43.08
2023-03-04T11:44:55.582Z,43.28
2023-03-04T11:47:23.513Z,42.83
2023-03-04T11:49:59.508Z,43.08
2023-03-04T11:52:28.501Z,42.93
2023-03-04T11:55:00.818Z,42.99
2023-03-04T11:57:31.593Z,42.94
2023-03-04T12:00:03.990Z,43.08
2023-03-04T12:02:22.671Z,42.85
2023-03-04T12:04:52.160Z,43.09
2023-03-04T12:07:18.737Z,43.04
2023-03-04T12:09:38.464Z,43.12
2023-03-04T12:12:05.346Z,42.76
2023-03-04T12:14:22.600Z,42.84
2023-03-04T12:16:46.536Z,42.77
2023-03-04T12:19:24.960Z,42.94
2023-03-04T12:21:37.218Z,42.96
2023-03-04T12:23:53.540Z,43.10
2023-03-04T12:26:07.480Z,42.77
2023-03-04T12:28:25.544Z,42.87
2023-03-04T12:30:45.256Z,42.81
2023-03-04T12:33:10.217Z,43.19
2023-03-04T12:35:21.107Z,42.66
2023-03-04T12:37:47.999Z,42.65
2023-03-04T12:40:06.886Z,42.63
2023-03-04T12:42:51.293Z,42.70
2023-03-04T12:45:18.192Z,43.02
2023-03-04T12:47:40.832Z,43.01
2023-03-04T12:49:48.523Z,42.65
2023-03-04T12:52:16.268Z,42.94
2023-03-04T12:54:40.889Z,43.04
2023-03-04T12:56:50.429Z,42.85
2023-03-04T12:58:53.578Z,42.87
2023-03-04T13:01:19.190Z,42.67
2023-03-04T13:03:35.551Z,43.04
2023-03-04T13:05:57.324Z,42.96
2023-03-04T13:08:11.278Z,42.92
2023-03-04T13:10:16.543Z,42.67
2023-03-04T13:12:22.595Z,42.92
2023-03-04T13:14:27.622Z,42.68
2023-03-04T13:16:40.935Z,42.80
2023-03-04T13:18:45.016Z,42.87
2023-03-04T13:20:46.895Z,43.04
2023-03-04T13:22:58.151Z,43.07
2023-03-04T13:25:22.443Z,42.90
2023-03-04T13:27:48.503Z,43.19
2023-03-04T13:29:50.219Z,42.80
2023-03-04T13:32:11.243Z,42.86
2023-03-04T13:34:46.660Z,43.02
2023-03-04T13:37:28.193Z,42.71
2023-03-04T13:40:16.056Z,42.75
2023-03-04T13:42:46.202Z,42.65
2023-03-04T13:44:49.568Z,43.08
2023-03-04T13:46:52.503Z,42.57
2023-03-04T13:48:57.157Z,42.68
2023-03-04T13:50:59.882Z,42.83
2023-03-04T13:53:23.785Z,42.81
2023-03-04T13:55:41.089Z,42.61
2023-03-04T13:57:49.688Z,42.78
2023-03-04T13:59:58.259Z,42.60
2023-03-04T14:02:11.719Z,42.74
2023-03-04T14:04:20.886Z,42.88
2023-03-04T14:06:28.407Z,42.73
2023-03-04T14:08:29.945Z,42.76
2023-03-04T14:10:33.364Z,42.68
2023-03-04T14:12:40.200Z,42.52
2023-03-04T14:14:50.120Z,42.74
2023-03-04T14:17:00.731Z,42.59
2023-03-04T14:19:06.521Z,42.74
2023-03-04T14:21:13.924Z,42.52
2023-03-04T14:23:41.891Z,42.32
2023-03-04T14:25:43.513Z,42.47
2023-03-04T14:27:45.962Z,42.46
2023-03-04T14:29:55.652Z,42.23
2023-03-04T14:31:58.624Z,42.46
2023-03-04T14:34:04.402Z,42.45
2023-03-04T14:36:06.109Z,42.48
2023-03-04T14:38:21.002Z,42.34
2023-03-04T14:40:28.536Z,42.45
2023-03-04T14:42:42.323Z,42.40
2023-03-04T14:44:49.224Z,42.54
2023-03-04T14:47:07.911Z,42.26
2023-03-04T14:49:13.464Z,42.30
2023-03-04T14:51:30.003Z,42.25
2023-03-04T14:53:33.496Z,42.58
2023-03-04T14:55:35.716Z,42.15
2023-03-04T14:57:37.578Z,42.14
2023-03-04T14:59:39.105Z,42.28
2023-03-04T15:01:40.801Z,42.33
2023-03-04T15:03:51.551Z,42.45
2023-03-04T15:05:55.650Z,42.21
2023-03-04T15:08:00.308Z,42.09
2023-03-04T15:10:05.082Z,42.56
2023-03-04T15:12:10.220Z,42.39
2023-03-04T15:14:42.914Z,42.31
2023-03-04T15:16:57.085Z,42.21
2023-03-04T15:19:23.009Z,42.44
2023-03-04T15:21:33.065Z,42.38
2023-03-04T15:23:34.713Z,42.00
2023-03-04T15:25:36.596Z,42.08
2023-03-04T15:27:38.203Z,42.47
2023-03-04T15:29:39.708Z,42.15
2023-03-04T15:31:43.664Z,42.14
2023-03-04T15:33:45.416Z,42.04
2023-03-04T15:35:53.613Z,42.19
2023-03-04T15:37:55.945Z,42.37
2023-03-04T15:39:58.742Z,42.32
2023-03-04T15:42:00.823Z,42.46
2023-03-04T15:44:02.432Z,42.56
2023-03-04T15:46:04.526Z,42.51
2023-03-04T15:48:09.013Z,42.22
2023-03-04T15:50:11.373Z,42.41
2023-03-04T15:52:22.281Z,42.50
2023-03-04T15:54:26.542Z,42.24
2023-03-04T15:56:34.033Z,42.41
2023-03-04T15:58:35.825Z,42.36
2023-03-04T16:00:37.681Z,42.45
2023-03-04T16:02:39.691Z,42.31
2023-03-04T16:04:41.614Z,42.50
2023-03-04T16:06:45.383Z,42.46
2023-03-04T16:08:49.521Z,42.37
2023-03-04T16:10:52.707Z,42.43
2023-03-04T16:12:54.789Z,42.37
2023-03-04T16:14:56.457Z,42.74
2023-03-04T16:16:58.083Z,42.82
2023-03-04T16:18:59.820Z,42.33
2023-03-04T16:21:02.838Z,42.70
2023-03-04T16:23:05.712Z,42.73
2023-03-04T16:25:11.198Z,42.62
2023-03-04T16:27:15.584Z,42.72
2023-03-04T16:29:17.152Z,42.71
2023-03-04T16:31:20.166Z,42.67
2023-03-04T16:33:21.786Z,42.94
2023-03-04T16:35:27.765Z,42.76
2023-03-04T16:37:29.354Z,42.51
2023-03-04T16:39:31.090Z,42.50
2023-03-04T16:41:42.797Z,42.67
2023-03-04T16:43:44.465Z,42.85
2023-03-04T16:45:46.089Z,42.54
2023-03-04T16:47:47.719Z,42.52
2023-03-04T16:49:50.535Z,42.76
2023-03-04T16:51:52.436Z,42.78
2023-03-04T16:54:00.246Z,42.82
2023-03-04T16:56:06.354Z,43.23
2023-03-04T16:58:10.117Z,42.80
2023-03-04T17:00:12.908Z,43.11
2023-03-04T17:02:19.924Z,42.76
2023-03-04T17:04:22.853Z,42.81
2023-03-04T17:06:25.246Z,42.77
2023-03-04T17:08:27.037Z,43.18
2023-03-04T17:10:29.129Z,42.98
2023-03-04T17:12:30.764Z,42.91
2023-03-04T17:14:32.558Z,42.90
2023-03-04T17:16:34.229Z,43.15
2023-03-04T17:18:35.841Z,43.16
2023-03-04T17:20:37.569Z,43.01
2023-03-04T17:22:39.122Z,43.09
2023-03-04T17:24:40.664Z,43.39
2023-03-04T17:26:42.766Z,43.31
2023-03-04T17:28:44.438Z,43.27
2023-03-04T17:30:46.032Z,43.31
2023-03-04T17:32:47.601Z,43.40
2023-03-04T17:34:49.285Z,43.07
2023-03-04T17:36:50.888Z,43.13
2023-03-04T17:38:52.378Z,43.21
2023-03-04T17:40:54.038Z,43.46
2023-03-04T17:42:55.637Z,43.45
2023-03-04T17:44:57.271Z,43.18
2023-03-04T17:46:59.171Z,43.11
2023-03-04T17:49:00.877Z,43.36
2023-03-04T17:51:03.140Z,43.37
2023-03-04T17:53:05.148Z,43.22
2023-03-04T17:55:07.411Z,43.53
2023-03-04T17:57:10.057Z,43.41
2023-03-04T17:59:14.500Z,42.98
2023-03-04T18:01:19.060Z,43.66
2023-03-04T18:03:20.572Z,43.59
2023-03-04T18:05:22.239Z,43.24
2023-03-04T18:07:23.813Z,43.31
2023-03-04T18:09:25.399Z,43.84
2023-03-04T18:11:28.033Z,43.14
2023-03-04T18:13:29.685Z,43.59
2023-03-04T18:15:31.314Z,43.40
2023-03-04T18:17:33.405Z,43.42
2023-03-04T18:19:35.006Z,43.45
2023-03-04T18:21:36.832Z,43.49
2023-03-04T18:23:38.380Z,43.25
2023-03-04T18:25:40.314Z,43.30
2023-03-04T18:27:42.974Z,43.70
2023-03-04T18:29:44.585Z,43.59
2023-03-04T18:31:46.438Z,43.50
2023-03-04T18:33:48.189Z,43.73
2023-03-04T18:35:50.226Z,43.67
2023-03-04T18:37:52.070Z,43.41
2023-03-04T18:39:53.682Z,43.51
2023-03-04T18:41:55.420Z,43.22
2023-03-04T18:43:57.020Z,43.64
2023-03-04T18:46:08.103Z,43.44
2023-03-04T18:48:09.801Z,43.51
2023-03-04T18:50:12.804Z,43.58
2023-03-04T18:52:14.630Z,43.88
2023-03-04T18:54:16.170Z,43.71
2023-03-04T18:56:27.571Z,43.63
2023-03-04T18:58:32.917Z,43.72
2023-03-04T19:00:34.589Z,43.66
2023-03-04T19:02:43.212Z,43.53
2023-03-04T19:04:44.861Z,43.49
2023-03-04T19:06:46.692Z,43.80
2023-03-04T19:08:50.745Z,43.95
2023-03-04T19:10:52.223Z,43.85
2023-03-04T19:12:53.809Z,43.79
2023-03-04T19:14:55.452Z,43.83
2023-03-04T19:16:57.180Z,43.47
2023-03-04T19:18:58.728Z,43.72
2023-03-04T19:21:00.758Z,43.83
2023-03-04T19:23:02.593Z,44.05
2023-03-04T19:25:05.074Z,43.80
2023-03-04T19:27:06.681Z,43.47
2023-03-04T19:29:08.331Z,43.63
2023-03-04T19:31:11.528Z,43.73
2023-03-04T19:33:13.375Z,43.98
2023-03-04T19:35:15.852Z,43.74
2023-03-04T19:37:17.816Z,43.59
2023-03-04T19:39:19.536Z,43.89
2023-03-04T19:41:21.267Z,43.85
2023-03-04T19:43:22.874Z,43.88
2023-03-04T19:45:25.428Z,43.86
2023-03-04T19:47:27.656Z,43.86
2023-03-04T19:49:31.108Z,43.88
2023-03-04T19:51:32.859Z,43.90
2023-03-04T19:53:35.026Z,44.13
2023-03-04T19:55:37.613Z,43.72
2023-03-04T19:57:40.646Z,44.03
2023-03-04T19:59:42.392Z,43.75
2023-03-04T20:01:45.565Z,44.03
2023-03-04T20:03:47.285Z,43.82
2023-03-04T20:05:48.858Z,44.17
2023-03-04T20:07:50.445Z,44.27
2023-03-04T20:09:54.932Z,44.18
2023-03-04T20:11:59.293Z,43.74
2023-03-04T20:14:01.686Z,43.87
2023-03-04T20:16:07.829Z,44.06
2023-03-04T20:18:09.453Z,44.19
2023-03-04T20:20:12.415Z,44.10
2023-03-04T20:22:14.806Z,43.90
2023-03-04T20:24:18.402Z,44.14
2023-03-04T20:26:20.007Z,43.84
2023-03-04T20:28:25.850Z,43.70
2023-03-04T20:30:27.927Z,43.96
2023-03-04T20:32:29.622Z,43.97
2023-03-04T20:34:31.197Z,43.88
2023-03-04T20:36:34.506Z,43.76
2023-03-04T20:38:36.476Z,44.04
2023-03-04T20:40:38.327Z,43.96
2023-03-04T20:42:40.077Z,44.10
2023-03-04T20:44:41.666Z,43.90
2023-03-04T20:46:46.197Z,44.05
2023-03-04T20:48:47.841Z,44.19
2023-03-04T20:50:49.292Z,43.77
2023-03-04T20:52:51.000Z,44.09
2023-03-04T20:54:52.839Z,44.24
2023-03-04T20:56:54.459Z,43.99
2023-03-04T20:58:58.247Z,44.01
2023-03-04T21:00:59.820Z,43.85
2023-03-04T21:03:01.415Z,44.35
2023-03-04T21:05:03.954Z,44.06
2023-03-04T21:07:05.668Z,44.37
2023-03-04T21:09:09.780Z,44.17
2023-03-04T21:11:13.702Z,44.55
2023-03-04T21:13:16.790Z,44.28
2023-03-04T21:15:18.585Z,44.23
2023-03-04T21:17:20.504Z,44.30
2023-03-04T21:19:27.510Z,44.15
2023-03-04T21:21:29.385Z,44.25
2023-03-04T21:23:30.995Z,44.29
2023-03-04T21:25:32.889Z,44.26
2023-03-04T21:27:38.721Z,44.43
2023-03-04T21:29:40.549Z,44.53
2023-03-04T21:31:46.387Z,44.20
2023-03-04T21:33:48.883Z,44.49
2023-03-04T21:35:50.480Z,44.37
2023-03-04T21:37:52.226Z,44.67
2023-03-04T21:39:55.458Z,44.27
2023-03-04T21:41:58.556Z,43.98
2023-03-04T21:44:00.198Z,44.38
2023-03-04T21:46:01.774Z,44.19
2023-03-04T21:48:04.662Z,44.09
2023-03-04T21:50:06.645Z,44.18
2023-03-04T21:52:08.220Z,44.55
2023-03-04T21:54:12.388Z,44.23
2023-03-04T21:56:14.051Z,44.27
2023-03-04T21:58:15.799Z,44.27
2023-03-04T22:00:17.932Z,44.15
2023-03-04T22:02:22.254Z,44.24
2023-03-04T22:04:23.896Z,44.65
2023-03-04T22:06:27.125Z,44.26
2023-03-04T22:08:29.386Z,44.64
2023-03-04T22:10:31.173Z,44.51
2023-03-04T22:12:33.389Z,44.47
2023-03-04T22:14:34.864Z,44.33
2023-03-04T22:16:48.828Z,44.56
2023-03-04T22:18:54.932Z,44.52
2023-03-04T22:21:02.614Z,44.49
2023-03-04T22:23:04.614Z,44.41
2023-03-04T22:25:06.683Z,44.55
2023-03-04T22:27:08.327Z,44.14
2023-03-04T22:29:10.077Z,44.50
2023-03-04T22:31:30.335Z,44.55
2023-03-04T22:33:37.192Z,44.36
2023-03-04T22:35:41.845Z,44.72
2023-03-04T22:37:44.892Z,44.69
2023-03-04T22:39:46.514Z,44.46
2023-03-04T22:41:48.343Z,44.49
2023-03-04T22:43:50.948Z,44.70
2023-03-04T22:45:52.619Z,44.55
2023-03-04T22:47:54.272Z,44.59
2023-03-04T22:49:55.848Z,44.53
2023-03-04T22:51:57.349Z,44.51
2023-03-04T22:53:59.585Z,44.53
2023-03-04T22:56:01.238Z,44.73
2023-03-04T22:58:03.772Z,44.68
2023-03-04T23:00:23.669Z,44.68
2023-03-04T23:02:25.383Z,44.87
2023-03-04T23:04:27.111Z,44.50
2023-03-04T23:06:30.394Z,44.47
2023-03-04T23:08:33.283Z,44.79
2023-03-04T23:10:34.879Z,44.77
2023-03-04T23:12:36.355Z,44.48
2023-03-04T23:14:38.130Z,44.67
2023-03-04T23:16:43.176Z,44.99
2023-03-04T23:18:49.067Z,44.84
2023-03-04T23:20:50.537Z,44.56
2023-03-04T23:22:52.060Z,45.28
2023-03-04T23:24:53.709Z,44.87
2023-03-04T23:26:55.390Z,45.03
2023-03-04T23:28:57.298Z,44.71
2023-03-04T23:30:58.858Z,44.86
2023-03-04T23:33:00.781Z,44.87
2023-03-04T23:35:02.657Z,45.05
2023-03-04T23:37:04.356Z,44.80
2023-03-04T23:39:07.670Z,44.89
2023-03-04T23:41:18.348Z,45.10
2023-03-04T23:43:19.971Z,44.71
2023-03-04T23:45:21.626Z,44.89
2023-03-04T23:47:23.275Z,44.83
2023-03-04T23:49:24.875Z,44.98
2023-03-04T23:51:28.524Z,44.86
2023-03-04T23:53:30.269Z,44.91
2023-03-04T23:55:34.336Z,45.00
2023-03-04T23:57:35.901Z,45.01
2023-03-04T23:59:38.423Z,45.03
